createdAt,value
2018-12-18T00:02:06.161Z,12.20
2018-12-18T00:04:35.396Z,12.17
2018-12-18T00:07:04.647Z,11.97
2018-12-18T00:09:33.910Z,11.63
2018-12-18T00:12:03.179Z,11.57
2018-12-18T00:14:32.470Z,11.88
2018-12-18T00:17:01.781Z,11.57
2018-12-18T00:19:30.996Z,12.43
2018-12-18T00:22:03.001Z,12.37
2018-12-18T00:24:32.248Z,13.47
2018-12-18T00:27:01.422Z,12.80
2018-12-18T00:29:30.666Z,12.43
2018-12-18T00:31:59.899Z,12.83
2018-12-18T00:34:29.221Z,13.93
2018-12-18T00:36:58.432Z,13.00
2018-12-18T00:39:27.686Z,13.37
2018-12-18T00:41:58.193Z,13.10
2018-12-18T00:44:27.435Z,13.40
2018-12-18T00:46:56.690Z,12.50
2018-12-18T00:49:25.919Z,12.73
2018-12-18T00:51:55.093Z,14.30
2018-12-18T00:54:24.318Z,13.35
2018-12-18T00:56:53.620Z,12.90
2018-12-18T00:59:22.876Z,12.60
2018-12-18T01:02:00.033Z,14.03
2018-12-18T01:04:29.503Z,12.00
2018-12-18T01:06:58.732Z,13.40
2018-12-18T01:09:27.980Z,13.37
2018-12-18T01:11:57.142Z,14.47
2018-12-18T01:14:26.399Z,14.00
2018-12-18T01:16:55.661Z,14.43
2018-12-18T01:19:24.880Z,13.90
2018-12-18T01:21:54.121Z,14.23
2018-12-18T01:24:23.582Z,14.25
2018-12-18T01:26:52.845Z,12.90
2018-12-18T01:29:22.061Z,13.40
2018-12-18T01:31:51.268Z,13.63
2018-12-18T01:34:20.721Z,12.77
2018-12-18T01:36:49.902Z,13.90
2018-12-18T01:39:19.109Z,13.37
2018-12-18T01:41:48.384Z,13.30
2018-12-18T01:44:17.888Z,12.97
2018-12-18T01:46:47.108Z,13.00
2018-12-18T01:49:16.622Z,13.83
2018-12-18T01:51:45.838Z,14.43
2018-12-18T01:54:15.918Z,14.47
2018-12-18T01:56:45.181Z,14.10
2018-12-18T01:59:15.105Z,13.97
2018-12-18T02:01:44.348Z,13.83
2018-12-18T02:04:13.562Z,13.95
2018-12-18T02:06:42.823Z,15.97
2018-12-18T02:09:12.050Z,14.13
2018-12-18T02:11:41.325Z,14.07
2018-12-18T02:14:10.522Z,14.20
2018-12-18T02:16:39.758Z,14.63
2018-12-18T02:19:10.141Z,13.20
2018-12-18T02:21:40.906Z,11.97
2018-12-18T02:24:10.080Z,14.60
2018-12-18T02:26:39.309Z,14.47
2018-12-18T02:29:08.537Z,12.13
2018-12-18T02:31:37.826Z,13.43
2018-12-18T02:34:13.495Z,13.23
2018-12-18T02:36:36.205Z,13.20
2018-12-18T02:39:07.074Z,13.30
2018-12-18T02:41:36.313Z,14.43
2018-12-18T02:44:05.509Z,14.00
2018-12-18T02:46:34.736Z,12.90
2018-12-18T02:49:03.973Z,13.20
2018-12-18T02:51:33.325Z,13.40
2018-12-18T02:54:02.515Z,14.43
2018-12-18T02:56:31.710Z,14.00
2018-12-18T02:59:00.951Z,13.48
2018-12-18T03:01:30.175Z,13.87
2018-12-18T03:03:59.419Z,13.90
2018-12-18T03:06:28.666Z,13.20
2018-12-18T03:08:57.901Z,12.40
2018-12-18T03:11:27.052Z,14.00
2018-12-18T03:13:56.323Z,15.47
2018-12-18T03:16:25.553Z,13.47
2018-12-18T03:18:54.799Z,15.63
2018-12-18T03:21:23.996Z,14.50
2018-12-18T03:23:53.236Z,15.30
2018-12-18T03:26:22.465Z,15.77
2018-12-18T03:28:51.735Z,14.23
2018-12-18T03:31:20.948Z,16.30
2018-12-18T03:33:50.208Z,15.32
2018-12-18T03:36:19.360Z,15.47
2018-12-18T03:38:48.558Z,14.20
2018-12-18T03:41:18.026Z,15.10
2018-12-18T03:43:47.245Z,15.75
2018-12-18T03:46:16.472Z,17.03
2018-12-18T03:48:45.704Z,16.20
2018-12-18T03:51:15.531Z,17.57
2018-12-18T03:53:44.732Z,17.30
2018-12-18T03:56:14.990Z,16.63
2018-12-18T03:58:44.374Z,16.42
2018-12-18T04:01:14.175Z,16.63
2018-12-18T04:03:43.669Z,16.70
2018-12-18T04:06:13.547Z,17.40
2018-12-18T04:08:42.754Z,16.87
2018-12-18T04:11:12.587Z,17.40
2018-12-18T04:13:41.790Z,17.80
2018-12-18T04:16:11.002Z,16.97
2018-12-18T04:18:40.274Z,16.07
2018-12-18T04:21:09.512Z,17.95
2018-12-18T04:23:38.691Z,17.43
2018-12-18T04:26:07.932Z,17.57
2018-12-18T04:28:37.148Z,16.40
2018-12-18T04:31:06.356Z,17.40
2018-12-18T04:33:35.586Z,17.97
2018-12-18T04:36:05.018Z,16.90
2018-12-18T04:38:34.211Z,17.77
2018-12-18T04:41:03.445Z,19.47
2018-12-18T04:43:32.643Z,16.87
2018-12-18T04:46:01.815Z,18.13
2018-12-18T04:48:30.981Z,16.83
2018-12-18T04:51:00.240Z,18.20
2018-12-18T04:53:29.391Z,19.13
2018-12-18T04:55:58.634Z,18.20
2018-12-18T04:58:27.804Z,20.00
2018-12-18T05:00:57.087Z,19.73
2018-12-18T05:03:26.299Z,18.70
2018-12-18T05:05:55.490Z,18.17
2018-12-18T05:08:24.767Z,18.52
2018-12-18T05:10:54.000Z,16.93
2018-12-18T05:13:23.262Z,17.90
2018-12-18T05:15:52.435Z,19.20
2018-12-18T05:18:21.696Z,18.03
2018-12-18T05:20:50.929Z,19.50
2018-12-18T05:23:20.109Z,19.60
2018-12-18T05:25:49.342Z,17.43
2018-12-18T05:28:18.554Z,18.12
2018-12-18T05:30:47.759Z,16.83
2018-12-18T05:33:17.633Z,17.13
2018-12-18T05:35:46.851Z,18.00
2018-12-18T05:38:16.313Z,17.92
2018-12-18T05:40:45.477Z,16.63
2018-12-18T05:43:15.217Z,16.70
2018-12-18T05:45:44.492Z,17.53
2018-12-18T05:48:13.870Z,15.40
2018-12-18T05:50:43.089Z,17.63
2018-12-18T05:53:12.584Z,17.70
2018-12-18T05:55:42.105Z,18.33
2018-12-18T05:58:13.211Z,17.97
2018-12-18T06:00:42.480Z,16.90
2018-12-18T06:03:11.713Z,14.97
2018-12-18T06:05:40.989Z,17.20
2018-12-18T06:08:10.217Z,16.40
2018-12-18T06:10:39.443Z,17.07
2018-12-18T06:13:08.726Z,15.40
2018-12-18T06:15:37.955Z,14.60
2018-12-18T06:18:07.177Z,16.13
2018-12-18T06:20:36.375Z,16.80
2018-12-18T06:23:05.580Z,14.50
2018-12-18T06:25:34.782Z,15.93
2018-12-18T06:28:04.000Z,15.07
2018-12-18T06:30:33.248Z,16.27
2018-12-18T06:33:02.507Z,16.52
2018-12-18T06:35:32.733Z,16.80
2018-12-18T06:38:03.486Z,16.77
2018-12-18T06:40:32.725Z,16.93
2018-12-18T06:43:01.993Z,17.40
2018-12-18T06:45:31.229Z,18.20
2018-12-18T06:48:00.490Z,16.00
2018-12-18T06:50:29.769Z,16.80
2018-12-18T06:52:58.992Z,15.23
2018-12-18T06:55:28.219Z,15.13
2018-12-18T06:57:57.460Z,15.57
2018-12-18T07:00:26.763Z,14.13
2018-12-18T07:02:55.966Z,13.40
2018-12-18T07:05:25.291Z,12.90
2018-12-18T07:07:57.465Z,13.10
2018-12-18T07:10:23.709Z,13.23
2018-12-18T07:12:52.908Z,14.33
2018-12-18T07:15:22.171Z,14.37
2018-12-18T07:17:51.454Z,12.07
2018-12-18T07:20:20.636Z,12.20
2018-12-18T07:22:49.898Z,11.93
2018-12-18T07:25:19.121Z,13.20
2018-12-18T07:27:48.331Z,11.90
2018-12-18T07:30:17.667Z,11.57
2018-12-18T07:32:47.258Z,11.30
2018-12-18T07:35:23.022Z,11.73
2018-12-18T07:37:45.757Z,12.10
2018-12-18T07:40:15.040Z,11.93
2018-12-18T07:42:44.391Z,11.47
2018-12-18T07:45:13.619Z,11.10
2018-12-18T07:47:42.845Z,11.43
2018-12-18T07:50:12.715Z,12.13
2018-12-18T07:52:41.949Z,12.10
2018-12-18T07:55:12.819Z,12.43
2018-12-18T07:57:42.023Z,12.63
2018-12-18T08:00:12.285Z,11.78
2018-12-18T08:02:41.574Z,13.30
2018-12-18T08:05:13.130Z,12.33
2018-12-18T08:07:42.387Z,11.15
2018-12-18T08:10:12.237Z,12.03
2018-12-18T08:12:41.495Z,12.13
2018-12-18T08:15:13.003Z,10.30
2018-12-18T08:17:42.421Z,11.73
2018-12-18T08:20:12.410Z,11.90
2018-12-18T08:25:52.388Z,12.20
2018-12-18T08:28:21.706Z,13.90
2018-12-18T08:30:51.240Z,13.27
2018-12-18T08:33:21.545Z,12.05
2018-12-18T08:35:50.882Z,12.17
2018-12-18T08:38:20.084Z,12.37
2018-12-18T08:40:52.503Z,12.67
2018-12-18T08:43:21.797Z,12.10
2018-12-18T08:45:53.972Z,11.10
2018-12-18T08:48:25.449Z,12.73
2018-12-18T08:50:56.038Z,13.27
2018-12-18T08:53:26.263Z,13.50
2018-12-18T08:55:55.677Z,12.20
2018-12-18T08:58:24.906Z,12.18
2018-12-18T09:00:54.932Z,13.40
2018-12-18T09:03:24.164Z,14.00
2018-12-18T09:05:53.387Z,13.97
2018-12-18T09:08:22.643Z,12.23
2018-12-18T09:10:51.909Z,12.83
2018-12-18T09:13:21.353Z,12.93
2018-12-18T09:15:57.621Z,13.70
2018-12-18T09:18:27.055Z,12.60
2018-12-18T09:20:56.256Z,12.70
2018-12-18T09:23:25.505Z,11.97
2018-12-18T09:25:54.770Z,10.80
2018-12-18T09:28:24.038Z,10.40
2018-12-18T09:30:53.238Z,11.53
2018-12-18T09:33:22.509Z,10.80
2018-12-18T09:35:51.739Z,10.03
2018-12-18T09:38:26.280Z,10.60
2018-12-18T09:41:00.651Z,10.03
2018-12-18T09:43:35.165Z,11.40
2018-12-18T09:46:04.436Z,9.83
2018-12-18T09:48:33.703Z,11.00
2018-12-18T09:51:02.906Z,10.13
2018-12-18T09:53:32.125Z,8.40
2018-12-18T09:56:01.324Z,8.37
2018-12-18T09:58:30.516Z,9.30
2018-12-18T10:00:59.712Z,8.30
2018-12-18T10:03:33.512Z,8.80
2018-12-18T10:05:58.181Z,8.57
2018-12-18T10:08:27.466Z,9.40
2018-12-18T10:10:56.663Z,8.87
2018-12-18T10:13:25.910Z,8.10
2018-12-18T10:15:55.193Z,7.08
2018-12-18T10:18:24.381Z,7.00
2018-12-18T10:20:53.592Z,7.93
2018-12-18T10:23:22.892Z,6.80
2018-12-18T10:25:52.099Z,5.80
2018-12-18T10:28:21.428Z,6.83
2018-12-18T10:30:50.612Z,7.20
2018-12-18T10:33:19.881Z,7.10
2018-12-18T10:35:49.086Z,6.83
2018-12-18T10:38:18.338Z,6.58
2018-12-18T10:40:47.623Z,6.90
2018-12-18T10:43:16.851Z,7.67
2018-12-18T10:45:46.070Z,9.07
2018-12-18T10:48:15.296Z,6.73
2018-12-18T10:50:44.573Z,6.50
2018-12-18T10:53:13.779Z,6.40
2018-12-18T10:55:43.033Z,6.03
2018-12-18T10:58:12.276Z,6.73
2018-12-18T11:00:47.611Z,6.90
2018-12-18T11:03:17.908Z,6.77
2018-12-18T11:05:48.082Z,6.73
2018-12-18T11:08:18.526Z,5.90
2018-12-18T11:10:48.841Z,7.03
2018-12-18T11:13:19.675Z,7.50
2018-12-18T11:15:50.715Z,7.20
2018-12-18T11:18:21.078Z,5.73
2018-12-18T11:20:51.672Z,5.90
2018-12-18T11:23:20.913Z,5.97
2018-12-18T11:25:50.194Z,5.07
2018-12-18T11:28:19.379Z,5.37
2018-12-18T11:30:48.589Z,4.90
2018-12-18T11:33:17.773Z,5.13
2018-12-18T11:35:47.054Z,4.63
2018-12-18T11:38:16.278Z,5.50
2018-12-18T11:40:45.662Z,5.13
2018-12-18T11:43:14.868Z,5.67
2018-12-18T11:45:44.118Z,5.83
2018-12-18T11:48:13.331Z,6.20
2018-12-18T11:50:42.536Z,5.13
2018-12-18T11:53:11.815Z,5.00
2018-12-18T11:55:41.054Z,5.03
2018-12-18T11:58:10.440Z,5.27
2018-12-18T12:00:39.745Z,4.30
2018-12-18T12:03:09.268Z,4.85
2018-12-18T12:05:38.534Z,5.17
2018-12-18T12:08:08.102Z,5.47
2018-12-18T12:10:37.361Z,4.62
2018-12-18T12:13:06.626Z,4.40
2018-12-18T12:15:35.846Z,4.00
2018-12-18T12:18:05.077Z,4.33
2018-12-18T12:20:34.345Z,4.50
2018-12-18T12:23:03.553Z,3.83
2018-12-18T12:25:32.839Z,4.00
2018-12-18T12:28:06.305Z,4.17
2018-12-18T12:30:35.850Z,4.60
2018-12-18T12:33:05.106Z,4.08
2018-12-18T12:35:34.301Z,3.57
2018-12-18T12:38:03.524Z,4.27
2018-12-18T12:40:32.785Z,3.33
2018-12-18T12:43:02.061Z,3.90
2018-12-18T12:45:31.314Z,3.90
2018-12-18T12:48:00.769Z,4.00
2018-12-18T12:50:30.083Z,3.53
2018-12-18T12:52:59.502Z,3.95
2018-12-18T12:55:28.705Z,4.27
2018-12-18T12:57:58.001Z,4.07
2018-12-18T13:00:27.301Z,3.90
2018-12-18T13:02:56.568Z,3.63
2018-12-18T13:05:25.902Z,4.10
2018-12-18T13:07:56.223Z,4.00
2018-12-18T13:10:24.472Z,4.27
2018-12-18T13:12:53.773Z,4.87
2018-12-18T13:15:23.028Z,4.20
2018-12-18T13:17:52.271Z,3.83
2018-12-18T13:20:21.509Z,5.00
2018-12-18T13:22:50.747Z,4.40
2018-12-18T13:25:20.890Z,4.60
2018-12-18T13:27:50.155Z,4.37
2018-12-18T13:30:19.354Z,4.28
2018-12-18T13:32:48.591Z,5.17
2018-12-18T13:35:17.791Z,4.33
2018-12-18T13:37:47.043Z,4.27
2018-12-18T13:40:16.291Z,4.53
2018-12-18T13:42:45.519Z,4.10
2018-12-18T13:45:14.825Z,3.97
2018-12-18T13:47:44.088Z,3.60
2018-12-18T13:50:13.311Z,3.70
2018-12-18T13:52:42.514Z,4.50
2018-12-18T13:55:12.185Z,5.10
2018-12-18T13:57:41.446Z,4.30
2018-12-18T14:00:11.429Z,3.70
2018-12-18T14:02:40.690Z,3.60
2018-12-18T14:05:10.611Z,3.57
2018-12-18T14:07:39.845Z,3.60
2018-12-18T14:10:09.418Z,3.73
2018-12-18T14:12:38.736Z,3.37
2018-12-18T14:15:08.167Z,3.93
2018-12-18T14:17:37.426Z,4.03
2018-12-18T14:20:06.899Z,3.30
2018-12-18T14:22:36.113Z,3.13
2018-12-18T14:25:05.429Z,3.08
2018-12-18T14:27:34.714Z,3.57
2018-12-18T14:30:04.067Z,4.67
2018-12-18T14:32:33.290Z,3.63
2018-12-18T14:35:02.467Z,3.70
2018-12-18T14:37:31.691Z,3.92
2018-12-18T14:40:00.854Z,4.00
2018-12-18T14:42:30.062Z,3.65
2018-12-18T14:44:59.301Z,4.63
2018-12-18T14:47:28.589Z,4.50
2018-12-18T14:49:58.234Z,3.60
2018-12-18T14:52:27.012Z,4.17
2018-12-18T14:54:56.277Z,3.80
2018-12-18T14:57:25.474Z,3.40
2018-12-18T14:59:54.744Z,3.43
2018-12-18T15:02:23.938Z,4.03
2018-12-18T15:04:53.150Z,4.00
2018-12-18T15:07:22.400Z,4.07
2018-12-18T15:09:51.667Z,4.13
2018-12-18T15:12:20.888Z,3.80
2018-12-18T15:14:50.104Z,4.03
2018-12-18T15:17:19.366Z,4.12
2018-12-18T15:19:48.867Z,4.67
2018-12-18T15:22:18.051Z,3.60
2018-12-18T15:24:47.309Z,3.73
2018-12-18T15:27:16.615Z,3.67
2018-12-18T15:29:45.866Z,4.30
2018-12-18T15:32:15.071Z,3.50
2018-12-18T15:34:44.329Z,4.37
2018-12-18T15:37:13.641Z,4.17
2018-12-18T15:39:42.889Z,4.40
2018-12-18T15:42:12.068Z,4.20
2018-12-18T15:44:41.325Z,5.80
2018-12-18T15:47:10.795Z,4.83
2018-12-18T15:49:40.062Z,4.23
2018-12-18T15:52:09.683Z,3.83
2018-12-18T15:54:39.692Z,4.62
2018-12-18T15:57:09.255Z,5.10
2018-12-18T15:59:38.433Z,4.00
2018-12-18T16:02:07.608Z,3.85
2018-12-18T16:04:36.860Z,4.23
2018-12-18T16:07:06.081Z,4.50
2018-12-18T16:09:35.419Z,4.03
2018-12-18T16:12:04.661Z,4.30
2018-12-18T16:14:33.866Z,3.90
2018-12-18T16:17:03.120Z,3.93
2018-12-18T16:19:32.452Z,4.67
2018-12-18T16:22:01.724Z,4.85
2018-12-18T16:24:31.079Z,3.90
2018-12-18T16:27:00.277Z,4.20
2018-12-18T16:29:29.523Z,5.00
2018-12-18T16:35:09.886Z,4.83
2018-12-18T16:37:38.303Z,4.40
2018-12-18T16:40:06.888Z,5.80
2018-12-18T16:42:35.229Z,4.80
2018-12-18T16:45:03.707Z,5.87
2018-12-18T16:47:32.115Z,5.35
2018-12-18T16:50:00.411Z,5.73
2018-12-18T16:52:28.754Z,4.87
2018-12-18T16:54:57.068Z,5.77
2018-12-18T16:57:25.437Z,5.00
2018-12-18T16:59:53.789Z,4.83
2018-12-18T17:02:22.314Z,5.80
2018-12-18T17:04:50.635Z,4.70
2018-12-18T17:07:18.996Z,5.90
2018-12-18T17:09:47.341Z,5.53
2018-12-18T17:12:15.699Z,5.97
2018-12-18T17:14:44.090Z,5.67
2018-12-18T17:17:12.645Z,4.87
2018-12-18T17:19:40.958Z,5.77
2018-12-18T17:22:09.339Z,5.23
2018-12-18T17:24:37.757Z,6.40
2018-12-18T17:27:06.091Z,5.30
2018-12-18T17:29:34.410Z,5.27
2018-12-18T17:32:02.755Z,5.43
2018-12-18T17:34:31.142Z,5.37
2018-12-18T17:37:00.458Z,5.83
2018-12-18T17:39:28.803Z,5.30
2018-12-18T17:41:57.143Z,4.97
2018-12-18T17:44:25.461Z,5.07
2018-12-18T17:46:53.828Z,5.43
2018-12-18T17:49:22.137Z,5.40
2018-12-18T17:51:50.490Z,5.45
2018-12-18T17:54:18.835Z,6.20
2018-12-18T17:56:47.237Z,6.10
2018-12-18T17:59:15.593Z,5.70
2018-12-18T18:01:44.089Z,6.53
2018-12-18T18:04:12.408Z,5.43
2018-12-18T18:06:40.797Z,6.20
2018-12-18T18:09:09.236Z,5.50
2018-12-18T18:11:37.555Z,5.60
2018-12-18T18:14:05.926Z,5.93
2018-12-18T18:16:34.265Z,5.23
2018-12-18T18:19:02.621Z,6.10
2018-12-18T18:21:30.966Z,5.80
2018-12-18T18:26:36.628Z,4.90
2018-12-18T18:29:04.973Z,5.63
2018-12-18T18:31:33.330Z,5.07
2018-12-18T18:34:01.724Z,5.65
2018-12-18T18:36:30.082Z,5.90
2018-12-18T18:38:58.390Z,5.30
2018-12-18T18:41:26.770Z,5.65
2018-12-18T18:43:55.122Z,6.30
2018-12-18T18:46:23.452Z,5.53
2018-12-18T18:48:51.882Z,5.43
2018-12-18T18:51:20.537Z,5.07
2018-12-18T18:53:49.695Z,6.00
2018-12-18T18:56:18.096Z,5.83
2018-12-18T18:58:46.441Z,7.10
2018-12-18T19:01:15.197Z,6.15
2018-12-18T19:03:43.554Z,5.60
2018-12-18T19:06:12.042Z,5.40
2018-12-18T19:08:40.441Z,6.27
2018-12-18T19:11:08.814Z,5.30
2018-12-18T19:13:37.184Z,6.17
2018-12-18T19:16:05.533Z,6.00
2018-12-18T19:18:33.934Z,6.53
2018-12-18T19:21:02.229Z,6.00
2018-12-18T19:23:30.599Z,6.30
2018-12-18T19:25:58.942Z,5.57
2018-12-18T19:28:27.255Z,5.80
2018-12-18T19:30:55.637Z,5.53
2018-12-18T19:33:23.985Z,4.90
2018-12-18T19:35:52.796Z,5.08
2018-12-18T19:38:21.344Z,5.57
2018-12-18T19:40:49.721Z,5.30
2018-12-18T19:43:18.071Z,5.20
2018-12-18T19:45:46.591Z,4.63
2018-12-18T19:48:14.993Z,5.73
2018-12-18T19:50:43.315Z,5.10
2018-12-18T19:53:11.657Z,6.13
2018-12-18T19:55:40.084Z,6.37
2018-12-18T19:58:08.428Z,6.10
2018-12-18T20:00:36.788Z,6.80
2018-12-18T20:03:05.998Z,6.45
2018-12-18T20:05:34.321Z,6.13
2018-12-18T20:08:02.725Z,7.17
2018-12-18T20:10:31.055Z,6.50
2018-12-18T20:13:01.334Z,6.20
2018-12-18T20:15:29.681Z,7.00
2018-12-18T20:17:58.013Z,6.37
2018-12-18T20:20:27.182Z,7.50
2018-12-18T20:22:55.530Z,6.80
2018-12-18T20:25:23.869Z,7.43
2018-12-18T20:27:52.227Z,7.80
2018-12-18T20:30:20.588Z,8.83
2018-12-18T20:32:48.937Z,8.83
2018-12-18T20:35:17.606Z,8.65
2018-12-18T20:37:46.066Z,8.60
2018-12-18T20:40:16.248Z,8.97
2018-12-18T20:42:44.649Z,9.20
2018-12-18T20:45:13.478Z,10.38
2018-12-18T20:47:41.807Z,10.30
2018-12-18T20:50:10.172Z,9.23
2018-12-18T20:52:38.539Z,10.37
2018-12-18T20:55:07.021Z,11.43
2018-12-18T20:57:35.419Z,13.30
2018-12-18T21:00:06.020Z,13.30
2018-12-18T21:02:34.531Z,13.33
2018-12-18T21:05:04.340Z,13.08
2018-12-18T21:07:32.715Z,12.03
2018-12-18T21:10:01.043Z,11.97
2018-12-18T21:12:29.395Z,12.70
2018-12-18T21:15:00.683Z,12.67
2018-12-18T21:17:28.146Z,13.55
2018-12-18T21:19:56.484Z,12.43
2018-12-18T21:22:25.508Z,13.20
2018-12-18T21:24:53.842Z,14.37
2018-12-18T21:27:22.177Z,14.07
2018-12-18T21:29:50.515Z,13.90
2018-12-18T21:32:18.865Z,14.10
2018-12-18T21:34:47.219Z,14.93
2018-12-18T21:37:15.871Z,16.40
2018-12-18T21:39:44.237Z,14.67
2018-12-18T21:42:12.613Z,15.63
2018-12-18T21:44:41.016Z,14.47
2018-12-18T21:47:09.359Z,15.10
2018-12-18T21:49:37.709Z,14.27
2018-12-18T21:52:06.078Z,16.23
2018-12-18T21:54:34.631Z,16.00
2018-12-18T21:57:03.134Z,17.03
2018-12-18T21:59:31.675Z,16.80
2018-12-18T22:02:00.313Z,15.80
2018-12-18T22:04:28.659Z,16.90
2018-12-18T22:06:57.856Z,16.70
2018-12-18T22:09:26.230Z,18.40
2018-12-18T22:11:54.617Z,15.45
2018-12-18T22:14:23.475Z,16.60
2018-12-18T22:16:51.808Z,17.30
2018-12-18T22:19:20.296Z,16.67
2018-12-18T22:21:48.726Z,17.30
2018-12-18T22:24:17.213Z,16.73
2018-12-18T22:26:46.201Z,16.95
2018-12-18T22:29:15.021Z,15.77
2018-12-18T22:31:43.508Z,15.57
2018-12-18T22:34:11.902Z,16.97
2018-12-18T22:36:40.230Z,16.43
2018-12-18T22:39:09.735Z,17.30
2018-12-18T22:41:38.100Z,16.05
2018-12-18T22:44:06.592Z,17.17
2018-12-18T22:46:34.937Z,18.20
2018-12-18T22:49:03.292Z,15.47
2018-12-18T22:51:31.657Z,17.60
2018-12-18T22:54:00.043Z,18.35
2018-12-18T22:56:28.396Z,17.30
2018-12-18T22:58:56.758Z,17.10
2018-12-18T23:01:29.450Z,16.65
2018-12-18T23:03:59.262Z,17.30
2018-12-18T23:06:27.641Z,17.47
2018-12-18T23:08:55.980Z,16.50
2018-12-18T23:11:24.318Z,17.10
2018-12-18T23:13:52.648Z,16.45
2018-12-18T23:16:20.998Z,16.00
2018-12-18T23:18:49.325Z,17.17
2018-12-18T23:21:17.700Z,17.42
2018-12-18T23:23:46.025Z,16.33
2018-12-18T23:26:14.690Z,17.77
2018-12-18T23:28:43.036Z,15.90
2018-12-18T23:31:11.409Z,18.33
2018-12-18T23:33:39.751Z,17.83
2018-12-18T23:36:08.494Z,17.93
2018-12-18T23:38:37.008Z,18.73
2018-12-18T23:41:05.453Z,17.10
2018-12-18T23:43:33.793Z,17.60
2018-12-18T23:46:02.172Z,18.37
2018-12-18T23:48:30.713Z,17.10
2018-12-18T23:50:59.057Z,17.50
2018-12-18T23:53:27.554Z,16.30
2018-12-18T23:55:56.093Z,17.57
2018-12-18T23:58:25.041Z,16.70
